TimeEDT,TemperatureF,Dew PointF,Humidity,Sea Level PressureIn,VisibilityMPH,Wind Direction,Wind SpeedMPH,Gust SpeedMPH,PrecipitationIn,Events,Conditions,WindDirDegrees,DateUTC
12:07 AM,69.8,69.8,100,29.84,1.5,SSE,3.5,-,N/A,,Overcast,150,2013-07-23 04:07:00
12:27 AM,69.8,69.8,100,29.83,5.0,Calm,Calm,-,N/A,,Overcast,0,2013-07-23 04:27:00
12:47 AM,69.8,69.8,100,29.82,5.0,Calm,Calm,-,N/A,,Overcast,0,2013-07-23 04:47:00
1:07 AM,69.8,69.8,100,29.82,1.8,Calm,Calm,-,N/A,,Overcast,0,2013-07-23 05:07:00
1:27 AM,69.8,69.8,100,29.82,4.0,Calm,Calm,-,N/A,,Overcast,0,2013-07-23 05:27:00
1:47 AM,69.8,69.8,100,29.81,3.0,Calm,Calm,-,N/A,,Overcast,0,2013-07-23 05:47:00
2:07 AM,69.8,69.8,100,29.80,3.0,Calm,Calm,-,N/A,,Overcast,0,2013-07-23 06:07:00
2:27 AM,69.8,69.8,100,29.80,2.0,SE,3.5,-,N/A,,Overcast,130,2013-07-23 06:27:00
2:47 AM,69.8,69.8,100,29.80,1.8,Calm,Calm,-,N/A,,Overcast,0,2013-07-23 06:47:00
3:07 AM,69.8,69.8,100,29.80,2.0,Calm,Calm,-,N/A,,Overcast,0,2013-07-23 07:07:00
3:27 AM,69.8,69.8,100,29.80,2.5,Calm,Calm,-,N/A,,Overcast,0,2013-07-23 07:27:00
3:47 AM,69.8,69.8,100,29.79,2.5,Calm,Calm,-,N/A,,Overcast,0,2013-07-23 07:47:00
4:07 AM,69.8,69.8,100,29.80,1.5,Calm,Calm,-,N/A,,Overcast,0,2013-07-23 08:07:00
4:27 AM,69.8,69.8,100,29.79,2.0,Calm,Calm,-,N/A,,Overcast,0,2013-07-23 08:27:00
4:47 AM,69.8,69.8,100,29.79,1.5,Calm,Calm,-,N/A,,Overcast,0,2013-07-23 08:47:00
5:07 AM,69.8,69.8,100,29.79,0.8,South,3.5,-,N/A,,Overcast,190,2013-07-23 09:07:00
5:27 AM,69.8,69.8,100,29.80,2.0,Calm,Calm,-,N/A,,Overcast,0,2013-07-23 09:27:00
5:47 AM,69.8,69.8,100,29.79,1.2,Calm,Calm,-,N/A,,Overcast,0,2013-07-23 09:47:00
6:07 AM,69.8,69.8,100,29.80,2.5,SSE,3.5,-,N/A,,Overcast,160,2013-07-23 10:07:00
6:27 AM,69.8,68.0,94,29.80,1.8,Calm,Calm,-,N/A,,Overcast,0,2013-07-23 10:27:00
6:48 AM,69.8,69.8,100,29.80,3.0,Calm,Calm,-,N/A,,Overcast,0,2013-07-23 10:48:00
7:08 AM,69.8,69.8,100,29.80,2.5,Calm,Calm,-,N/A,,Overcast,0,2013-07-23 11:08:00
7:28 AM,69.8,69.8,100,29.80,4.0,Calm,Calm,-,N/A,,Mostly Cloudy,0,2013-07-23 11:28:00
7:48 AM,69.8,69.8,100,29.80,3.0,South,3.5,-,N/A,,Overcast,180,2013-07-23 11:48:00
8:08 AM,69.8,69.8,100,29.80,5.0,SSE,3.5,-,N/A,,Mostly Cloudy,160,2013-07-23 12:08:00
8:28 AM,71.6,71.6,100,29.80,7.0,SE,4.6,-,N/A,,Scattered Clouds,130,2013-07-23 12:28:00
9:08 AM,73.4,68.0,83,29.80,10.0,WNW,9.2,16.1,N/A,,Overcast,290,2013-07-23 13:08:00
9:28 AM,75.2,64.4,69,29.80,10.0,West,9.2,-,N/A,,Mostly Cloudy,270,2013-07-23 13:28:00
9:48 AM,73.4,64.4,73,29.80,10.0,West,10.4,18.4,N/A,,Mostly Cloudy,270,2013-07-23 13:48:00
10:08 AM,73.4,64.4,73,29.80,10.0,West,13.8,18.4,N/A,,Overcast,270,2013-07-23 14:08:00
10:28 AM,77.0,64.4,65,29.80,10.0,West,16.1,20.7,N/A,,Mostly Cloudy,270,2013-07-23 14:28:00
10:48 AM,77.0,64.4,65,29.80,10.0,West,8.1,-,N/A,,Mostly Cloudy,280,2013-07-23 14:48:00
11:08 AM,77.0,64.4,65,29.80,10.0,WNW,8.1,-,N/A,,Mostly Cloudy,290,2013-07-23 15:08:00
11:28 AM,77.0,64.4,65,29.81,10.0,WNW,5.8,-,N/A,,Mostly Cloudy,300,2013-07-23 15:28:00
11:48 AM,77.0,62.6,61,29.81,10.0,WNW,9.2,-,N/A,,Mostly Cloudy,300,2013-07-23 15:48:00
12:08 PM,78.8,64.4,61,29.81,10.0,WNW,6.9,-,N/A,,Mostly Cloudy,290,2013-07-23 16:08:00
12:28 PM,77.0,62.6,61,29.81,10.0,WNW,5.8,-,N/A,,Mostly Cloudy,290,2013-07-23 16:28:00
2:08 PM,80.6,60.8,51,29.80,10.0,NW,8.1,-,N/A,,Mostly Cloudy,320,2013-07-23 18:08:00
2:28 PM,82.4,60.8,48,29.80,10.0,West,6.9,-,N/A,,Mostly Cloudy,270,2013-07-23 18:28:00
2:48 PM,82.4,62.6,51,29.79,10.0,NNW,4.6,-,N/A,,Scattered Clouds,340,2013-07-23 18:48:00
3:08 PM,82.4,60.8,48,29.78,10.0,West,5.8,-,N/A,,Mostly Cloudy,280,2013-07-23 19:08:00
3:29 PM,86.0,60.8,43,29.77,10.0,WNW,8.1,-,N/A,,Scattered Clouds,290,2013-07-23 19:29:00
3:49 PM,86.0,60.8,43,29.77,10.0,NW,8.1,-,N/A,,Scattered Clouds,320,2013-07-23 19:49:00
4:09 PM,84.2,59.0,42,29.77,10.0,NW,6.9,-,N/A,,Scattered Clouds,310,2013-07-23 20:09:00
4:29 PM,86.0,60.8,43,29.75,10.0,West,8.1,-,N/A,,Scattered Clouds,270,2013-07-23 20:29:00
4:49 PM,87.8,59.0,38,29.74,10.0,NNW,5.8,-,N/A,,Scattered Clouds,330,2013-07-23 20:49:00
5:09 PM,86.0,60.8,43,29.74,10.0,West,11.5,-,N/A,,Scattered Clouds,270,2013-07-23 21:09:00
5:29 PM,86.0,60.8,43,29.74,10.0,West,5.8,-,N/A,,Scattered Clouds,270,2013-07-23 21:29:00
5:49 PM,86.0,60.8,43,29.74,10.0,West,9.2,-,N/A,,Scattered Clouds,280,2013-07-23 21:49:00
6:09 PM,86.0,59.0,40,29.75,10.0,West,9.2,-,N/A,,Scattered Clouds,270,2013-07-23 22:09:00
6:29 PM,86.0,59.0,40,29.75,10.0,West,8.1,16.1,N/A,,Clear,270,2013-07-23 22:29:00
6:49 PM,84.2,59.0,42,29.75,10.0,Calm,Calm,-,N/A,,Clear,0,2013-07-23 22:49:00
7:09 PM,82.4,60.8,48,29.75,10.0,West,6.9,-,N/A,,Scattered Clouds,260,2013-07-23 23:09:00
7:29 PM,82.4,60.8,48,29.76,10.0,West,6.9,-,N/A,,Scattered Clouds,280,2013-07-23 23:29:00
7:49 PM,80.6,62.6,54,29.77,10.0,West,5.8,-,N/A,,Clear,270,2013-07-23 23:49:00
8:09 PM,80.6,62.6,54,29.76,10.0,West,3.5,-,N/A,,Clear,270,2013-07-24 00:09:00
8:29 PM,80.6,62.6,54,29.77,10.0,West,6.9,-,N/A,,Clear,260,2013-07-24 00:29:00
8:49 PM,80.6,62.6,54,29.77,10.0,WSW,9.2,16.1,N/A,,Clear,250,2013-07-24 00:49:00
9:09 PM,78.8,59.0,51,29.77,10.0,WNW,6.9,18.4,N/A,,Clear,290,2013-07-24 01:09:00
9:29 PM,78.8,57.2,47,29.77,10.0,NW,4.6,-,N/A,,Clear,310,2013-07-24 01:29:00
9:49 PM,77.0,55.4,47,29.77,10.0,North,8.1,-,N/A,,Clear,350,2013-07-24 01:49:00
10:09 PM,71.6,60.8,69,29.78,7.0,West,9.2,18.4,N/A,,Mostly Cloudy,280,2013-07-24 02:09:00
10:29 PM,69.8,60.8,73,29.79,7.0,West,15.0,23.0,N/A,,Overcast,280,2013-07-24 02:29:00
10:49 PM,69.8,60.8,73,29.79,7.0,WSW,13.8,-,N/A,,Overcast,250,2013-07-24 02:49:00
11:09 PM,68.0,62.6,83,29.79,10.0,SE,6.9,-,N/A,,Scattered Clouds,140,2013-07-24 03:09:00
11:29 PM,68.0,62.6,83,29.79,10.0,South,8.1,-,N/A,,Clear,180,2013-07-24 03:29:00
11:49 PM,68.0,62.6,83,29.80,10.0,Calm,Calm,-,N/A,,Clear,0,2013-07-24 03:49:00